createdAt,value
2018-02-08T00:00:33.459Z,933.09
2018-02-08T00:01:33.454Z,933.07
2018-02-08T00:02:33.446Z,933.06
2018-02-08T00:03:33.436Z,933.04
2018-02-08T00:04:33.428Z,933.07
2018-02-08T00:05:33.420Z,933.07
2018-02-08T00:06:33.413Z,933.06
2018-02-08T00:07:33.405Z,933.07
2018-02-08T00:08:33.396Z,933.09
2018-02-08T00:09:33.388Z,933.06
2018-02-08T00:10:33.380Z,933.04
2018-02-08T00:11:33.372Z,933.05
2018-02-08T00:12:33.364Z,933.06
2018-02-08T00:13:33.357Z,933.08
2018-02-08T00:14:33.348Z,933.06
2018-02-08T00:15:33.340Z,933.09
2018-02-08T00:16:33.333Z,933.03
2018-02-08T00:17:33.324Z,933.07
2018-02-08T00:18:33.316Z,933.08
2018-02-08T00:19:33.308Z,933.11
2018-02-08T00:20:33.299Z,933.12
2018-02-08T00:21:33.291Z,933.09
2018-02-08T00:22:33.282Z,933.10
2018-02-08T00:23:33.275Z,933.06
2018-02-08T00:24:33.266Z,933.05
2018-02-08T00:25:33.259Z,933.03
2018-02-08T00:26:33.251Z,933.05
2018-02-08T00:27:33.245Z,933.05
2018-02-08T00:28:33.236Z,933.09
2018-02-08T00:29:33.228Z,933.05
2018-02-08T00:30:33.218Z,933.07
2018-02-08T00:31:33.209Z,933.07
2018-02-08T00:32:33.201Z,933.09
2018-02-08T00:33:33.194Z,933.10
2018-02-08T00:34:33.185Z,933.05
2018-02-08T00:35:33.178Z,933.12
2018-02-08T00:36:33.169Z,933.10
2018-02-08T00:37:33.161Z,933.08
2018-02-08T00:38:33.153Z,933.05
2018-02-08T00:39:33.144Z,933.05
2018-02-08T00:40:33.137Z,933.05
2018-02-08T00:41:33.127Z,933.07
2018-02-08T00:42:33.120Z,933.07
2018-02-08T00:43:33.112Z,933.08
2018-02-08T00:44:33.102Z,933.06
2018-02-08T00:45:33.095Z,933.07
2018-02-08T00:46:33.087Z,933.08
2018-02-08T00:47:33.078Z,933.09
2018-02-08T00:48:33.070Z,933.12
2018-02-08T00:49:33.062Z,933.13
2018-02-08T00:50:33.054Z,933.12
2018-02-08T00:51:33.046Z,933.12
2018-02-08T00:52:33.036Z,933.12
2018-02-08T00:53:33.029Z,933.13
2018-02-08T00:54:33.022Z,933.13
2018-02-08T00:55:33.013Z,933.13
2018-02-08T00:56:33.005Z,933.10
2018-02-08T00:57:32.997Z,933.11
2018-02-08T00:58:32.989Z,933.08
2018-02-08T00:59:32.980Z,933.12
2018-02-08T01:00:32.972Z,933.12
2018-02-08T01:01:32.967Z,933.12
2018-02-08T01:02:32.956Z,933.14
2018-02-08T01:03:32.948Z,933.15
2018-02-08T01:04:32.940Z,933.15
2018-02-08T01:05:32.932Z,933.15
2018-02-08T01:06:32.923Z,933.19
2018-02-08T01:07:32.915Z,933.13
2018-02-08T01:08:32.906Z,933.19
2018-02-08T01:09:32.898Z,933.19
2018-02-08T01:10:32.891Z,933.18
2018-02-08T01:11:32.882Z,933.18
2018-02-08T01:12:32.875Z,933.23
2018-02-08T01:13:32.867Z,933.21
2018-02-08T01:14:32.859Z,933.24
2018-02-08T01:15:32.849Z,933.22
2018-02-08T01:16:32.842Z,933.20
2018-02-08T01:17:32.834Z,933.25
2018-02-08T01:18:32.826Z,933.23
2018-02-08T01:19:32.817Z,933.28
2018-02-08T01:20:32.809Z,933.23
2018-02-08T01:21:32.802Z,933.24
2018-02-08T01:22:32.794Z,933.23
2018-02-08T01:23:32.785Z,933.25
2018-02-08T01:24:32.777Z,933.25
2018-02-08T01:25:32.769Z,933.25
2018-02-08T01:26:32.760Z,933.23
2018-02-08T01:27:32.752Z,933.21
2018-02-08T01:28:32.745Z,933.26
2018-02-08T01:29:32.736Z,933.24
2018-02-08T01:30:32.728Z,933.25
2018-02-08T01:31:32.720Z,933.23
2018-02-08T01:32:32.711Z,933.21
2018-02-08T01:33:32.703Z,933.20
2018-02-08T01:34:32.695Z,933.21
2018-02-08T01:35:32.685Z,933.24
2018-02-08T01:36:32.678Z,933.22
2018-02-08T01:37:32.669Z,933.20
2018-02-08T01:38:32.662Z,933.20
2018-02-08T01:39:32.652Z,933.18
2018-02-08T01:40:32.646Z,933.24
2018-02-08T01:41:32.636Z,933.21
2018-02-08T01:42:32.628Z,933.24
2018-02-08T01:43:32.619Z,933.20
2018-02-08T01:44:32.611Z,933.19
2018-02-08T01:45:32.602Z,933.19
2018-02-08T01:46:32.600Z,933.19
2018-02-08T01:47:32.587Z,933.21
2018-02-08T01:48:32.577Z,933.20
2018-02-08T01:49:32.569Z,933.17
2018-02-08T01:50:32.561Z,933.20
2018-02-08T01:51:32.552Z,933.20
2018-02-08T01:52:32.543Z,933.20
2018-02-08T01:53:32.536Z,933.22
2018-02-08T01:54:32.528Z,933.19
2018-02-08T01:55:32.519Z,933.17
2018-02-08T01:56:32.531Z,933.20
2018-02-08T01:57:32.503Z,933.21
2018-02-08T01:58:32.495Z,933.16
2018-02-08T01:59:32.484Z,933.20
2018-02-08T02:00:32.481Z,933.23
2018-02-08T02:01:32.469Z,933.19
2018-02-08T02:02:32.465Z,933.19
2018-02-08T02:03:32.452Z,933.20
2018-02-08T02:04:32.444Z,933.21
2018-02-08T02:05:32.436Z,933.20
2018-02-08T02:06:32.428Z,933.25
2018-02-08T02:07:32.418Z,933.24
2018-02-08T02:08:32.411Z,933.23
2018-02-08T02:09:32.403Z,933.23
2018-02-08T02:10:32.396Z,933.20
2018-02-08T02:11:32.391Z,933.24
2018-02-08T02:12:32.377Z,933.20
2018-02-08T02:13:32.369Z,933.19
2018-02-08T02:14:32.362Z,933.24
2018-02-08T02:15:32.353Z,933.28
2018-02-08T02:16:32.345Z,933.27
2018-02-08T02:17:32.336Z,933.23
2018-02-08T02:18:32.329Z,933.25
2018-02-08T02:19:32.320Z,933.24
2018-02-08T02:20:32.311Z,933.26
2018-02-08T02:21:32.303Z,933.25
2018-02-08T02:22:32.295Z,933.23
2018-02-08T02:23:32.286Z,933.24
2018-02-08T02:24:32.279Z,933.19
2018-02-08T02:25:32.270Z,933.21
2018-02-08T02:26:32.262Z,933.25
2018-02-08T02:27:32.253Z,933.26
2018-02-08T02:28:32.245Z,933.20
2018-02-08T02:29:32.238Z,933.23
2018-02-08T02:30:32.230Z,933.23
2018-02-08T02:31:32.221Z,933.22
2018-02-08T02:32:32.213Z,933.25
2018-02-08T02:33:32.205Z,933.19
2018-02-08T02:34:32.198Z,933.20
2018-02-08T02:35:32.188Z,933.25
2018-02-08T02:36:32.180Z,933.23
2018-02-08T02:37:32.176Z,933.25
2018-02-08T02:38:32.166Z,933.23
2018-02-08T02:39:32.155Z,933.26
2018-02-08T02:40:32.147Z,933.26
2018-02-08T02:41:32.139Z,933.26
2018-02-08T02:42:32.131Z,933.34
2018-02-08T02:43:32.122Z,933.28
2018-02-08T02:44:32.115Z,933.32
2018-02-08T02:45:32.107Z,933.33
2018-02-08T02:46:32.100Z,933.36
2018-02-08T02:47:32.090Z,933.37
2018-02-08T02:48:32.082Z,933.36
2018-02-08T02:49:32.074Z,933.37
2018-02-08T02:50:32.066Z,933.37
2018-02-08T02:51:32.063Z,933.43
2018-02-08T02:52:32.049Z,933.37
2018-02-08T02:53:32.042Z,933.43
2018-02-08T02:54:32.035Z,933.45
2018-02-08T02:55:32.025Z,933.44
2018-02-08T02:56:32.017Z,933.47
2018-02-08T02:57:32.010Z,933.44
2018-02-08T02:58:32.002Z,933.47
2018-02-08T02:59:31.994Z,933.46
2018-02-08T03:00:31.986Z,933.44
2018-02-08T03:01:31.977Z,933.47
2018-02-08T03:02:31.970Z,933.42
2018-02-08T03:03:31.959Z,933.41
2018-02-08T03:04:31.952Z,933.40
2018-02-08T03:05:31.944Z,933.41
2018-02-08T03:06:31.935Z,933.39
2018-02-08T03:07:31.926Z,933.41
2018-02-08T03:08:31.918Z,933.40
2018-02-08T03:09:31.912Z,933.39
2018-02-08T03:10:31.902Z,933.40
2018-02-08T03:11:31.893Z,933.39
2018-02-08T03:12:31.886Z,933.45
2018-02-08T03:13:31.876Z,933.42
2018-02-08T03:14:31.869Z,933.40
2018-02-08T03:15:31.860Z,933.42
2018-02-08T03:16:31.852Z,933.40
2018-02-08T03:17:31.845Z,933.39
2018-02-08T03:18:31.836Z,933.39
2018-02-08T03:19:31.826Z,933.40
2018-02-08T03:20:31.819Z,933.40
2018-02-08T03:21:31.811Z,933.40
2018-02-08T03:22:31.802Z,933.43
2018-02-08T03:23:31.794Z,933.43
2018-02-08T03:24:31.785Z,933.41
2018-02-08T03:25:31.777Z,933.45
2018-02-08T03:26:31.770Z,933.45
2018-02-08T03:27:31.761Z,933.43
2018-02-08T03:28:31.751Z,933.44
2018-02-08T03:29:31.743Z,933.49
2018-02-08T03:30:31.735Z,933.48
2018-02-08T03:31:31.729Z,933.47
2018-02-08T03:32:31.717Z,933.48
2018-02-08T03:33:31.710Z,933.47
2018-02-08T03:34:31.701Z,933.47
2018-02-08T03:35:31.693Z,933.45
2018-02-08T03:36:31.684Z,933.49
2018-02-08T03:37:31.675Z,933.51
2018-02-08T03:38:31.667Z,933.49
2018-02-08T03:39:31.659Z,933.50
2018-02-08T03:40:31.651Z,933.49
2018-02-08T03:41:31.643Z,933.54
2018-02-08T03:42:31.634Z,933.53
2018-02-08T03:43:31.625Z,933.49
2018-02-08T03:44:31.617Z,933.55
2018-02-08T03:45:31.610Z,933.52
2018-02-08T03:46:31.600Z,933.49
2018-02-08T03:47:31.593Z,933.52
2018-02-08T03:48:31.585Z,933.53
2018-02-08T03:49:31.576Z,933.52
2018-02-08T03:50:31.568Z,933.49
2018-02-08T03:51:31.560Z,933.54
2018-02-08T03:52:31.551Z,933.54
2018-02-08T03:53:31.542Z,933.51
2018-02-08T03:54:31.535Z,933.58
2018-02-08T03:55:31.526Z,933.54
2018-02-08T03:56:31.522Z,933.57
2018-02-08T03:57:31.511Z,933.56
2018-02-08T03:58:31.501Z,933.57
2018-02-08T03:59:31.491Z,933.55
2018-02-08T04:00:31.485Z,933.54
2018-02-08T04:01:31.476Z,933.52
2018-02-08T04:02:31.468Z,933.53
2018-02-08T04:03:31.459Z,933.59
2018-02-08T04:04:31.452Z,933.54
2018-02-08T04:05:31.443Z,933.55
2018-02-08T04:06:31.435Z,933.58
2018-02-08T04:07:31.425Z,933.57
2018-02-08T04:08:31.417Z,933.61
2018-02-08T04:09:31.409Z,933.61
2018-02-08T04:10:31.401Z,933.61
2018-02-08T04:11:31.393Z,933.64
2018-02-08T04:12:31.383Z,933.64
2018-02-08T04:13:31.377Z,933.63
2018-02-08T04:14:31.369Z,933.64
2018-02-08T04:15:31.360Z,933.66
2018-02-08T04:16:31.351Z,933.67
2018-02-08T04:17:31.343Z,933.68
2018-02-08T04:18:31.335Z,933.71
2018-02-08T04:19:31.327Z,933.68
2018-02-08T04:20:31.320Z,933.66
2018-02-08T04:21:31.310Z,933.67
2018-02-08T04:22:31.302Z,933.70
2018-02-08T04:23:31.293Z,933.70
2018-02-08T04:24:31.286Z,933.68
2018-02-08T04:25:31.278Z,933.67
2018-02-08T04:26:31.269Z,933.64
2018-02-08T04:27:31.262Z,933.64
2018-02-08T04:28:31.253Z,933.65
2018-02-08T04:29:31.246Z,933.68
2018-02-08T04:30:31.237Z,933.64
2018-02-08T04:31:31.229Z,933.65
2018-02-08T04:32:31.221Z,933.67
2018-02-08T04:33:31.213Z,933.64
2018-02-08T04:34:31.205Z,933.67
2018-02-08T04:35:31.197Z,933.67
2018-02-08T04:36:31.189Z,933.68
2018-02-08T04:37:31.185Z,933.67
2018-02-08T04:38:31.173Z,933.68
2018-02-08T04:39:31.165Z,933.67
2018-02-08T04:40:31.155Z,933.68
2018-02-08T04:41:31.148Z,933.73
2018-02-08T04:42:31.141Z,933.74
2018-02-08T04:43:31.132Z,933.75
2018-02-08T04:44:31.124Z,933.73
2018-02-08T04:45:31.116Z,933.75
2018-02-08T04:46:31.108Z,933.76
2018-02-08T04:47:31.099Z,933.77
2018-02-08T04:48:31.092Z,933.83
2018-02-08T04:49:31.084Z,933.80
2018-02-08T04:50:31.077Z,933.83
2018-02-08T04:51:31.068Z,933.83
2018-02-08T04:52:31.060Z,933.86
2018-02-08T04:53:31.051Z,933.85
2018-02-08T04:54:31.044Z,933.83
2018-02-08T04:55:31.036Z,933.86
2018-02-08T04:56:31.027Z,933.88
2018-02-08T04:57:31.021Z,933.88
2018-02-08T04:58:31.012Z,933.90
2018-02-08T04:59:31.003Z,933.89
2018-02-08T05:00:30.994Z,933.88
2018-02-08T05:01:30.987Z,933.90
2018-02-08T05:02:30.978Z,933.91
2018-02-08T05:03:30.971Z,933.92
2018-02-08T05:04:30.963Z,933.96
2018-02-08T05:05:30.955Z,933.97
2018-02-08T05:06:30.948Z,933.94
2018-02-08T05:07:30.940Z,933.92
2018-02-08T05:08:30.930Z,933.96
2018-02-08T05:09:30.924Z,933.94
2018-02-08T05:10:30.916Z,933.99
2018-02-08T05:11:30.906Z,933.97
2018-02-08T05:12:30.905Z,934.00
2018-02-08T05:13:30.890Z,934.00
2018-02-08T05:14:30.885Z,934.01
2018-02-08T05:15:30.874Z,934.03
2018-02-08T05:16:30.867Z,934.01
2018-02-08T05:17:30.858Z,934.01
2018-02-08T05:18:30.851Z,934.04
2018-02-08T05:19:30.843Z,934.07
2018-02-08T05:20:30.836Z,934.12
2018-02-08T05:21:30.826Z,934.06
2018-02-08T05:22:30.817Z,934.11
2018-02-08T05:23:30.810Z,934.11
2018-02-08T05:24:30.803Z,934.14
2018-02-08T05:25:30.795Z,934.15
2018-02-08T05:26:30.785Z,934.16
2018-02-08T05:27:30.777Z,934.19
2018-02-08T05:28:30.769Z,934.21
2018-02-08T05:29:30.760Z,934.20
2018-02-08T05:30:30.754Z,934.21
2018-02-08T05:31:30.744Z,934.22
2018-02-08T05:32:30.737Z,934.26
2018-02-08T05:33:30.728Z,934.24
2018-02-08T05:34:30.721Z,934.24
2018-02-08T05:35:30.711Z,934.21
2018-02-08T05:36:30.703Z,934.28
2018-02-08T05:37:30.696Z,934.25
2018-02-08T05:38:30.688Z,934.27
2018-02-08T05:39:30.680Z,934.32
2018-02-08T05:40:30.674Z,934.29
2018-02-08T05:41:30.664Z,934.29
2018-02-08T05:42:30.655Z,934.34
2018-02-08T05:43:30.646Z,934.34
2018-02-08T05:44:30.638Z,934.38
2018-02-08T05:45:30.630Z,934.40
2018-02-08T05:46:30.621Z,934.41
2018-02-08T05:47:30.614Z,934.40
2018-02-08T05:48:30.606Z,934.42
2018-02-08T05:49:30.598Z,934.39
2018-02-08T05:50:30.589Z,934.35
2018-02-08T05:51:30.582Z,934.39
2018-02-08T05:52:30.572Z,934.41
2018-02-08T05:53:30.566Z,934.39
2018-02-08T05:54:30.556Z,934.36
2018-02-08T05:55:30.548Z,934.38
2018-02-08T05:56:30.541Z,934.42
2018-02-08T05:57:30.533Z,934.40
2018-02-08T05:58:30.526Z,934.41
2018-02-08T05:59:30.516Z,934.41
2018-02-08T06:00:30.509Z,934.42
2018-02-08T06:01:30.500Z,934.43
2018-02-08T06:02:30.492Z,934.45
2018-02-08T06:03:30.483Z,934.50
2018-02-08T06:04:30.475Z,934.49
2018-02-08T06:05:30.468Z,934.49
2018-02-08T06:06:30.459Z,934.53
2018-02-08T06:07:30.451Z,934.50
2018-02-08T06:08:30.443Z,934.52
2018-02-08T06:09:30.433Z,934.52
2018-02-08T06:10:30.426Z,934.54
2018-02-08T06:11:30.418Z,934.54
2018-02-08T06:12:30.409Z,934.54
2018-02-08T06:13:30.401Z,934.56
2018-02-08T06:14:30.393Z,934.57
2018-02-08T06:15:30.384Z,934.55
2018-02-08T06:16:30.376Z,934.60
2018-02-08T06:17:30.370Z,934.59
2018-02-08T06:18:30.359Z,934.58
2018-02-08T06:19:30.351Z,934.60
2018-02-08T06:20:30.343Z,934.60
2018-02-08T06:21:30.337Z,934.59
2018-02-08T06:22:30.329Z,934.58
2018-02-08T06:23:30.319Z,934.57
2018-02-08T06:24:30.310Z,934.64
2018-02-08T06:25:30.303Z,934.64
2018-02-08T06:26:30.295Z,934.63
2018-02-08T06:27:30.285Z,934.65
2018-02-08T06:28:30.278Z,934.69
2018-02-08T06:29:30.272Z,934.62
2018-02-08T06:30:30.262Z,934.66
2018-02-08T06:31:30.253Z,934.71
2018-02-08T06:32:30.245Z,934.66
2018-02-08T06:33:30.238Z,934.72
2018-02-08T06:34:30.230Z,934.72
2018-02-08T06:35:30.220Z,934.71
2018-02-08T06:36:30.212Z,934.75
2018-02-08T06:37:30.206Z,934.77
2018-02-08T06:38:30.197Z,934.77
2018-02-08T06:39:30.189Z,934.81
2018-02-08T06:40:30.182Z,934.81
2018-02-08T06:41:30.173Z,934.81
2018-02-08T06:42:30.164Z,934.84
2018-02-08T06:43:30.155Z,934.80
2018-02-08T06:44:30.149Z,934.85
2018-02-08T06:45:30.140Z,934.87
2018-02-08T06:46:30.133Z,934.88
2018-02-08T06:47:30.123Z,934.87
2018-02-08T06:48:30.116Z,934.85
2018-02-08T06:49:30.108Z,934.90
2018-02-08T06:50:30.109Z,934.89
2018-02-08T06:51:30.090Z,934.90
2018-02-08T06:52:30.084Z,934.90
2018-02-08T06:53:30.075Z,934.91
2018-02-08T06:54:30.067Z,934.96
2018-02-08T06:55:30.060Z,934.94
2018-02-08T06:56:30.050Z,934.98
2018-02-08T06:57:30.045Z,934.93
2018-02-08T06:58:30.036Z,934.93
2018-02-08T06:59:30.026Z,934.95
2018-02-08T07:00:30.018Z,934.97
2018-02-08T07:01:30.010Z,934.99
2018-02-08T07:02:30.004Z,934.98
2018-02-08T07:03:29.994Z,935.00
2018-02-08T07:04:29.993Z,935.02
2018-02-08T07:05:29.979Z,935.04
2018-02-08T07:06:29.970Z,934.99
2018-02-08T07:07:29.961Z,935.00
2018-02-08T07:08:29.953Z,935.04
2018-02-08T07:09:29.945Z,935.07
2018-02-08T07:10:29.936Z,935.10
2018-02-08T07:11:29.929Z,935.08
2018-02-08T07:12:29.920Z,935.11
2018-02-08T07:13:29.913Z,935.13
2018-02-08T07:14:29.904Z,935.14
2018-02-08T07:15:29.895Z,935.14
2018-02-08T07:16:29.888Z,935.18
2018-02-08T07:17:29.885Z,935.14
2018-02-08T07:18:29.872Z,935.17
2018-02-08T07:19:29.862Z,935.19
2018-02-08T07:20:29.855Z,935.18
2018-02-08T07:21:29.847Z,935.17
2018-02-08T07:22:29.839Z,935.22
2018-02-08T07:23:29.831Z,935.22
2018-02-08T07:24:29.824Z,935.24
2018-02-08T07:25:29.815Z,935.25
2018-02-08T07:26:29.807Z,935.29
2018-02-08T07:27:29.797Z,935.31
2018-02-08T07:28:29.789Z,935.30
2018-02-08T07:29:29.781Z,935.33
2018-02-08T07:30:29.773Z,935.34
2018-02-08T07:31:29.764Z,935.35
2018-02-08T07:32:29.758Z,935.36
2018-02-08T07:33:29.748Z,935.43
2018-02-08T07:34:29.741Z,935.43
2018-02-08T07:35:29.732Z,935.44
2018-02-08T07:36:29.724Z,935.42
2018-02-08T07:37:29.716Z,935.40
2018-02-08T07:38:29.708Z,935.43
2018-02-08T07:39:29.700Z,935.45
2018-02-08T07:40:29.692Z,935.48
2018-02-08T07:41:29.686Z,935.47
2018-02-08T07:42:29.868Z,935.45
2018-02-08T07:43:29.668Z,935.47
2018-02-08T07:44:29.660Z,935.42
2018-02-08T07:45:29.676Z,935.46
2018-02-08T07:46:29.645Z,935.46
2018-02-08T07:47:29.636Z,935.48
2018-02-08T07:48:29.629Z,935.47
2018-02-08T07:49:29.781Z,935.47
2018-02-08T07:50:29.614Z,935.55
2018-02-08T07:51:29.605Z,935.48
2018-02-08T07:52:29.598Z,935.48
2018-02-08T07:53:29.590Z,935.46
2018-02-08T07:54:29.582Z,935.47
2018-02-08T07:55:29.577Z,935.48
2018-02-08T07:56:29.566Z,935.48
2018-02-08T07:57:29.559Z,935.54
2018-02-08T07:58:29.550Z,935.48
2018-02-08T07:59:29.720Z,935.47
2018-02-08T08:00:29.536Z,935.50
2018-02-08T08:01:29.527Z,935.53
2018-02-08T08:02:29.521Z,935.54
2018-02-08T08:03:29.511Z,935.56
2018-02-08T08:04:29.799Z,935.58
2018-02-08T08:05:29.498Z,935.58
2018-02-08T08:06:29.489Z,935.57
2018-02-08T08:07:29.481Z,935.51
2018-02-08T08:08:29.473Z,935.55
2018-02-08T08:09:29.466Z,935.55
2018-02-08T08:10:29.460Z,935.53
2018-02-08T08:11:29.451Z,935.58
2018-02-08T08:12:29.443Z,935.59
2018-02-08T08:13:29.436Z,935.55
2018-02-08T08:14:29.429Z,935.60
2018-02-08T08:15:29.420Z,935.62
2018-02-08T08:16:29.413Z,935.59
2018-02-08T08:17:29.405Z,935.59
2018-02-08T08:18:29.397Z,935.59
2018-02-08T08:19:29.393Z,935.60
2018-02-08T08:20:29.382Z,935.62
2018-02-08T08:21:29.376Z,935.65
2018-02-08T08:22:29.369Z,935.65
2018-02-08T08:23:29.361Z,935.67
2018-02-08T08:24:29.353Z,935.65
2018-02-08T08:25:29.345Z,935.70
2018-02-08T08:26:29.339Z,935.72
2018-02-08T08:27:29.330Z,935.68
2018-02-08T08:28:29.322Z,935.71
2018-02-08T08:29:29.314Z,935.69
2018-02-08T08:30:29.308Z,935.70
2018-02-08T08:31:29.300Z,935.69
2018-02-08T08:32:29.293Z,935.68
2018-02-08T08:33:29.286Z,935.72
2018-02-08T08:34:29.277Z,935.70
2018-02-08T08:35:29.270Z,935.69
2018-02-08T08:36:29.262Z,935.72
2018-02-08T08:37:29.255Z,935.72
2018-02-08T08:38:29.248Z,935.71
2018-02-08T08:39:29.239Z,935.70
2018-02-08T08:40:29.233Z,935.74
2018-02-08T08:41:29.224Z,935.70
2018-02-08T08:42:29.216Z,935.72
2018-02-08T08:43:29.208Z,935.76
2018-02-08T08:44:29.201Z,935.72
2018-02-08T08:45:29.192Z,935.78
2018-02-08T08:46:29.186Z,935.74
2018-02-08T08:47:29.178Z,935.77
2018-02-08T08:48:29.172Z,935.79
2018-02-08T08:49:29.163Z,935.79
2018-02-08T08:50:29.155Z,935.83
2018-02-08T08:51:29.147Z,935.85
2018-02-08T08:52:29.139Z,935.85
2018-02-08T08:53:29.132Z,935.83
2018-02-08T08:54:29.125Z,935.88
2018-02-08T08:55:29.116Z,935.87
2018-02-08T08:56:29.108Z,935.90
2018-02-08T08:57:29.103Z,935.94
2018-02-08T08:58:29.095Z,935.86
2018-02-08T08:59:29.086Z,935.90
2018-02-08T09:00:29.078Z,935.92
2018-02-08T09:01:29.070Z,935.95
2018-02-08T09:02:29.063Z,935.95
2018-02-08T09:03:29.054Z,935.94
2018-02-08T09:04:29.048Z,935.92
2018-02-08T09:05:29.040Z,935.98
2018-02-08T09:06:29.032Z,935.96
2018-02-08T09:07:29.024Z,936.00
2018-02-08T09:08:29.018Z,935.92
2018-02-08T09:09:29.010Z,935.98
2018-02-08T09:10:29.005Z,935.95
2018-02-08T09:11:28.995Z,935.94
2018-02-08T09:12:28.988Z,935.99
2018-02-08T09:13:28.980Z,935.95
2018-02-08T09:14:28.972Z,935.95
2018-02-08T09:15:28.965Z,935.99
2018-02-08T09:16:28.957Z,936.00
2018-02-08T09:17:28.950Z,935.99
2018-02-08T09:18:28.943Z,935.98
2018-02-08T09:19:28.934Z,935.99
2018-02-08T09:20:28.926Z,936.01
2018-02-08T09:21:28.919Z,936.03
2018-02-08T09:22:28.912Z,936.05
2018-02-08T09:23:28.911Z,936.04
2018-02-08T09:24:28.897Z,936.08
2018-02-08T09:25:28.890Z,936.05
2018-02-08T09:26:28.883Z,936.05
2018-02-08T09:27:28.874Z,936.02
2018-02-08T09:28:28.868Z,936.01
2018-02-08T09:29:28.861Z,936.02
2018-02-08T09:30:28.853Z,936.05
2018-02-08T09:31:28.845Z,936.03
2018-02-08T09:32:28.837Z,936.05
2018-02-08T09:33:28.835Z,936.09
2018-02-08T09:34:28.823Z,936.11
2018-02-08T09:35:28.815Z,936.11
2018-02-08T09:36:28.836Z,936.12
2018-02-08T09:37:28.802Z,936.10
2018-02-08T09:38:28.797Z,936.05
2018-02-08T09:39:28.787Z,936.04
2018-02-08T09:40:28.780Z,936.06
2018-02-08T09:41:28.772Z,936.09
2018-02-08T09:42:28.766Z,936.07
2018-02-08T09:43:29.018Z,936.08
2018-02-08T09:44:28.749Z,936.10
2018-02-08T09:45:28.743Z,936.15
2018-02-08T09:46:28.741Z,936.15
2018-02-08T09:47:28.727Z,936.15
2018-02-08T09:48:28.721Z,936.15
2018-02-08T09:49:28.712Z,936.12
2018-02-08T09:50:28.706Z,936.16
2018-02-08T09:51:28.697Z,936.16
2018-02-08T09:52:28.692Z,936.18
2018-02-08T09:53:28.685Z,936.21
2018-02-08T09:54:28.678Z,936.18
2018-02-08T09:55:28.669Z,936.22
2018-02-08T09:56:28.663Z,936.19
2018-02-08T09:57:28.656Z,936.16
2018-02-08T09:58:28.649Z,936.20
2018-02-08T09:59:28.640Z,936.19
2018-02-08T10:00:28.633Z,936.23
2018-02-08T10:01:28.626Z,936.20
2018-02-08T10:02:28.620Z,936.21
2018-02-08T10:03:28.612Z,936.22
2018-02-08T10:04:28.604Z,936.23
2018-02-08T10:05:28.597Z,936.23
2018-02-08T10:06:28.591Z,936.22
2018-02-08T10:07:28.583Z,936.27
2018-02-08T10:08:28.576Z,936.23
2018-02-08T10:09:28.569Z,936.21
2018-02-08T10:10:28.562Z,936.22
2018-02-08T10:11:28.553Z,936.22
2018-02-08T10:12:28.547Z,936.25
2018-02-08T10:13:28.540Z,936.22
2018-02-08T10:14:28.534Z,936.27
2018-02-08T10:15:28.525Z,936.27
2018-02-08T10:16:28.519Z,936.21
2018-02-08T10:17:28.511Z,936.27
2018-02-08T10:18:28.505Z,936.23
2018-02-08T10:19:28.498Z,936.22
2018-02-08T10:20:28.490Z,936.21
2018-02-08T10:21:28.484Z,936.21
2018-02-08T10:22:28.476Z,936.22
2018-02-08T10:23:28.468Z,936.24
2018-02-08T10:24:28.461Z,936.22
2018-02-08T10:25:28.454Z,936.24
2018-02-08T10:26:28.448Z,936.21
2018-02-08T10:27:28.441Z,936.23
2018-02-08T10:28:28.434Z,936.20
2018-02-08T10:29:28.427Z,936.24
2018-02-08T10:30:28.421Z,936.22
2018-02-08T10:31:28.412Z,936.23
2018-02-08T10:32:28.405Z,936.21
2018-02-08T10:33:28.398Z,936.18
2018-02-08T10:34:28.392Z,936.16
2018-02-08T10:35:28.385Z,936.19
2018-02-08T10:36:28.378Z,936.18
2018-02-08T10:37:28.372Z,936.15
2018-02-08T10:38:28.364Z,936.15
2018-02-08T10:39:28.357Z,936.13
2018-02-08T10:40:28.350Z,936.15
2018-02-08T10:41:28.345Z,936.16
2018-02-08T10:42:28.338Z,936.19
2018-02-08T10:43:28.330Z,936.19
2018-02-08T10:44:28.323Z,936.15
2018-02-08T10:45:28.317Z,936.14
2018-02-08T10:46:28.311Z,936.16
2018-02-08T10:47:28.305Z,936.16
2018-02-08T10:48:28.299Z,936.12
2018-02-08T10:49:28.292Z,936.10
2018-02-08T10:50:28.285Z,936.15
2018-02-08T10:51:28.279Z,936.14
2018-02-08T10:52:28.298Z,936.17
2018-02-08T10:53:28.266Z,936.16
2018-02-08T10:54:28.260Z,936.16
2018-02-08T10:55:28.253Z,936.14
2018-02-08T10:56:28.248Z,936.19
2018-02-08T10:57:28.242Z,936.19
2018-02-08T10:58:28.237Z,936.16
2018-02-08T10:59:28.228Z,936.17
2018-02-08T11:00:28.222Z,936.14
2018-02-08T11:01:28.217Z,936.14
2018-02-08T11:02:28.212Z,936.13
2018-02-08T11:03:28.206Z,936.14
2018-02-08T11:04:28.200Z,936.13
2018-02-08T11:05:28.199Z,936.13
2018-02-08T11:06:28.189Z,936.08
2018-02-08T11:07:28.182Z,936.13
2018-02-08T11:08:28.177Z,936.13
2018-02-08T11:09:28.175Z,936.10
2018-02-08T11:10:28.167Z,936.11
2018-02-08T11:11:28.160Z,936.08
2018-02-08T11:12:28.156Z,936.07
2018-02-08T11:13:28.149Z,936.06
2018-02-08T11:14:28.146Z,936.09
2018-02-08T11:15:28.138Z,936.09
2018-02-08T11:16:28.134Z,936.09
2018-02-08T11:17:28.128Z,936.11
2018-02-08T11:18:28.125Z,936.09
2018-02-08T11:19:28.117Z,936.07
2018-02-08T11:20:28.112Z,936.06
2018-02-08T11:21:28.108Z,936.08
2018-02-08T11:22:28.103Z,936.13
2018-02-08T11:23:28.096Z,936.14
2018-02-08T11:24:28.091Z,936.14
2018-02-08T11:25:28.086Z,936.14
2018-02-08T11:26:28.082Z,936.09
2018-02-08T11:27:28.076Z,936.14
2018-02-08T11:28:28.070Z,936.09
2018-02-08T11:29:28.066Z,936.12
2018-02-08T11:30:28.061Z,936.11
2018-02-08T11:31:28.055Z,936.11
2018-02-08T11:32:28.051Z,936.11
2018-02-08T11:33:28.046Z,936.13
2018-02-08T11:34:28.041Z,936.11
2018-02-08T11:35:28.034Z,936.12
2018-02-08T11:36:28.031Z,936.12
2018-02-08T11:37:28.026Z,936.15
2018-02-08T11:38:28.019Z,936.12
2018-02-08T11:39:28.013Z,936.10
2018-02-08T11:40:28.008Z,936.07
2018-02-08T11:41:28.003Z,936.08
2018-02-08T11:42:27.997Z,936.07
2018-02-08T11:43:27.993Z,936.07
2018-02-08T11:44:27.995Z,936.09
2018-02-08T11:45:27.982Z,936.07
2018-02-08T11:46:27.977Z,936.06
2018-02-08T11:47:27.972Z,936.08
2018-02-08T11:48:27.965Z,936.10
2018-02-08T11:49:27.961Z,936.10
2018-02-08T11:50:27.957Z,936.10
2018-02-08T11:51:27.951Z,936.11
2018-02-08T11:52:27.946Z,936.04
2018-02-08T11:53:27.939Z,936.05
2018-02-08T11:54:27.935Z,936.03
2018-02-08T11:55:27.928Z,936.06
2018-02-08T11:56:27.926Z,936.10
2018-02-08T11:57:27.918Z,936.04
2018-02-08T11:58:27.913Z,936.07
2018-02-08T11:59:27.907Z,936.09
2018-02-08T12:00:27.902Z,936.09
2018-02-08T12:01:27.897Z,936.09
2018-02-08T12:02:27.892Z,936.08
2018-02-08T12:03:27.885Z,936.08
2018-02-08T12:04:27.887Z,936.11
2018-02-08T12:05:27.874Z,936.10
2018-02-08T12:06:27.870Z,936.10
2018-02-08T12:07:27.864Z,936.10
2018-02-08T12:08:27.857Z,936.13
2018-02-08T12:09:27.875Z,936.15
2018-02-08T12:10:27.848Z,936.16
2018-02-08T12:11:27.839Z,936.15
2018-02-08T12:12:27.834Z,936.16
2018-02-08T12:13:27.829Z,936.13
2018-02-08T12:14:27.824Z,936.13
2018-02-08T12:15:27.816Z,936.10
2018-02-08T12:16:27.811Z,936.11
2018-02-08T12:17:27.805Z,936.12
2018-02-08T12:18:27.799Z,936.11
2018-02-08T12:19:27.808Z,936.12
2018-02-08T12:20:27.786Z,936.15
2018-02-08T12:21:27.781Z,936.14
2018-02-08T12:22:27.776Z,936.15
2018-02-08T12:23:27.768Z,936.12
2018-02-08T12:24:27.773Z,936.09
2018-02-08T12:25:27.757Z,936.11
2018-02-08T12:26:27.751Z,936.07
2018-02-08T12:27:28.055Z,936.12
2018-02-08T12:28:27.740Z,936.09